Mesa, AZ (85201)

9:38 PM MST on April 27, 2017 (GMT -0700)
Country club estates | | Change Station
Active Advisory: Fire Weather Warning

Elev 1250 ft 33.44 °N, 111.85 °W | Updated 26 seconds ago

Partly Cloudy
Partly Cloudy
77.9 °F
Feels Like 78 °F
N
2.2
Wind Variable Wind from SW

Today
High -- | Low -- °F
--% Chance of Precip.
Yesterday
High -- | Low -- °F
Precip. -- in
Pressure 29.52 in
Visibility 10.0 miles
Clouds Few 25000 ft
Heat Index 78 °F
Dew Point 39 °F
Humidity 25%
Rainfall 0.00 in
Snow Depth Not available.
5:42 AM 7:07 PM
Waxing Crescent, 4% visible
METAR KPHX 280351Z 23009KT 10SM FEW250 28/02 A2957 RMK AO2 SLP995 T02830022
Pressure 29.52 in
Visibility 10.0 miles
Clouds Few 25000 ft
Heat Index 78 °F
Dew Point 39 °F
Humidity 25%
Rainfall 0.00 in
Snow Depth Not available.
5:42 AM 7:07 PM
Waxing Crescent, 4% visible
METAR KPHX 280351Z 23009KT 10SM FEW250 28/02 A2957 RMK AO2 SLP995 T02830022

Get Your Daily Forecast Email!

Thanks for signing up!

Be on the lookout for a verification email in your inbox.

You'll start receiving severe weather alerts in your inbox..

×

10-Day Weather Forecast

Almanac

Astronomy

Apr. 27, 2017 Rise Set
Actual Time
Civil Twilight
Nautical Twilight
Astronomical Twilight
Moon
Length of Visible Light
Length of Day
Tomorrow will be .
, % of the Moon is Illuminated

Today's Extremes

State Highs State Lows

Community

WunderPhotos

WunderBlog® & News

Nearby

Air Quality

  Air Quality AQ Index Pollutant
Not available.

Snow Depth

Station Depth Elevation

Earthquake Activity

City Distance Mag. Time & Date
Minimum magnitude displayed is 2.5.

Coastal Water Temperatures

Place Temperature

Stations

Nearby Weather Stations

Station Location Temp. Windchill Dew Point Humidity Wind Precip. Elev Updated Type
                   

Watches & Warnings

Fire Weather Warning
Issued: 1:55 PM MDT Apr. 27, 2017 – National Weather Service

... Red flag warning remains in effect from 11 am to 9 PM MST
Friday for strong winds, low relative humidity and high to very
high fire danger for all of south central Arizona...

* affected area... central deserts of south central Arizona.

* Winds... northwest 15 to 25 mph with gusts up to 40 mph.

* Timing... Friday 3pm MST to 8pm MST.

* Relative humidity... as low as 7 percent.

* Impacts... fuels are dry and fire danger is high to very high.
These conditions combined with low relative humidity and strong
winds will lead to widespread hazardous fire weather conditions.

Precautionary/preparedness actions...

Please advise the appropriate officials and fire crews in the
field of this red flag warning.